createdAt,value
2023-04-06T00:02:07.551Z,40.20
2023-04-06T00:07:13.233Z,37.00
2023-04-06T00:12:18.759Z,31.30
2023-04-06T00:17:24.348Z,26.50
2023-04-06T00:22:29.874Z,24.60
2023-04-06T00:27:35.388Z,30.80
2023-04-06T00:32:40.866Z,28.10
2023-04-06T00:37:51.193Z,24.90
2023-04-06T00:42:56.822Z,23.90
2023-04-06T00:48:06.166Z,23.60
2023-04-06T00:53:12.155Z,23.50
2023-04-06T00:58:20.579Z,18.30
2023-04-06T01:03:30.333Z,18.40
2023-04-06T01:08:36.801Z,22.30
2023-04-06T01:13:58.607Z,23.00
2023-04-06T01:19:15.283Z,22.90
2023-04-06T01:24:25.265Z,21.40
2023-04-06T01:29:58.953Z,20.80
2023-04-06T01:35:37.516Z,17.80
2023-04-06T01:40:51.833Z,17.40
2023-04-06T01:45:59.303Z,18.60
2023-04-06T01:51:08.536Z,15.20
2023-04-06T02:01:32.614Z,13.50
2023-04-06T02:06:38.280Z,14.30
2023-04-06T02:11:44.534Z,16.20
2023-04-06T02:16:50.613Z,12.80
2023-04-06T02:21:56.634Z,15.50
2023-04-06T02:27:02.162Z,14.40
2023-04-06T02:32:08.344Z,13.40
2023-04-06T02:37:14.140Z,16.00
2023-04-06T02:42:19.827Z,16.50
2023-04-06T02:47:27.109Z,16.10
2023-04-06T02:52:32.979Z,12.20
2023-04-06T02:57:39.717Z,15.60
2023-04-06T03:02:45.712Z,15.80
2023-04-06T03:07:54.143Z,15.90
2023-04-06T03:13:07.193Z,17.00
2023-04-06T03:18:26.413Z,16.90
2023-04-06T03:23:33.437Z,17.50
2023-04-06T03:28:40.203Z,18.50
2023-04-06T03:33:46.418Z,18.30
2023-04-06T03:39:06.038Z,18.60
2023-04-06T03:44:13.996Z,21.40
2023-04-06T03:49:19.485Z,19.20
2023-04-06T03:54:26.716Z,22.00
2023-04-06T03:59:32.414Z,18.90
2023-04-06T04:04:38.016Z,25.00
2023-04-06T04:09:43.760Z,21.70
2023-04-06T04:14:50.376Z,24.50
2023-04-06T04:19:56.065Z,24.90
2023-04-06T04:25:01.526Z,23.70
2023-04-06T04:30:09.078Z,26.80
2023-04-06T04:35:14.947Z,18.10
2023-04-06T04:40:21.943Z,21.70
2023-04-06T04:45:31.284Z,17.40
2023-04-06T04:50:39.247Z,23.20
2023-04-06T04:55:45.285Z,23.60
2023-04-06T05:00:51.203Z,23.90
2023-04-06T05:05:57.471Z,18.60
2023-04-06T05:11:05.496Z,18.30
2023-04-06T05:16:14.660Z,14.50
2023-04-06T05:21:21.302Z,12.90
2023-04-06T05:26:49.354Z,11.70
2023-04-06T05:31:59.607Z,14.50
2023-04-06T05:37:05.788Z,12.30
2023-04-06T05:42:12.377Z,11.10
2023-04-06T05:47:37.752Z,13.00
2023-04-06T05:52:52.038Z,10.70
2023-04-06T05:57:59.764Z,11.70
2023-04-06T06:03:06.978Z,8.80
2023-04-06T06:08:13.369Z,12.30
2023-04-06T06:13:19.341Z,9.20
2023-04-06T06:18:25.386Z,11.30
2023-04-06T06:23:32.218Z,11.60
2023-04-06T06:28:38.187Z,8.40
2023-04-06T06:33:44.040Z,9.30
2023-04-06T06:38:49.536Z,9.80
2023-04-06T06:43:56.932Z,15.50
2023-04-06T06:49:04.231Z,6.50
2023-04-06T06:54:10.559Z,18.90
2023-04-06T06:59:17.323Z,11.80
2023-04-06T07:04:24.574Z,9.00
2023-04-06T07:09:30.238Z,7.30
2023-04-06T07:14:35.845Z,8.20
2023-04-06T07:19:41.836Z,15.70
2023-04-06T07:24:47.516Z,10.20
2023-04-06T07:29:53.471Z,11.10
2023-04-06T07:34:59.840Z,13.00
2023-04-06T07:40:06.894Z,6.50
2023-04-06T07:45:14.159Z,11.30
2023-04-06T07:50:20.363Z,13.40
2023-04-06T07:55:26.817Z,7.40
2023-04-06T08:00:32.189Z,14.20
2023-04-06T08:05:37.627Z,12.20
2023-04-06T08:10:44.175Z,9.20
2023-04-06T08:15:49.740Z,6.10
2023-04-06T08:20:56.998Z,7.20
2023-04-06T08:26:02.574Z,7.90
2023-04-06T08:31:08.907Z,9.50
2023-04-06T08:36:16.139Z,7.70
2023-04-06T08:41:21.880Z,9.20
2023-04-06T08:46:31.503Z,8.40
2023-04-06T08:51:38.440Z,11.10
2023-04-06T08:56:44.434Z,6.40
2023-04-06T09:01:50.179Z,24.30
2023-04-06T09:06:56.128Z,7.00
2023-04-06T09:12:06.876Z,8.10
2023-04-06T09:17:22.838Z,8.90
2023-04-06T09:22:38.352Z,7.20
2023-04-06T09:27:45.461Z,7.10
2023-04-06T09:32:53.488Z,12.50
2023-04-06T09:37:59.596Z,7.90
2023-04-06T09:43:08.049Z,6.40
2023-04-06T09:48:13.884Z,9.00
2023-04-06T09:53:22.305Z,10.90
2023-04-06T09:58:28.704Z,7.40
2023-04-06T10:03:46.050Z,6.40
2023-04-06T10:09:10.755Z,9.20
2023-04-06T10:14:16.773Z,8.70
2023-04-06T10:19:27.625Z,7.30
2023-04-06T10:24:33.157Z,9.80
2023-04-06T10:29:48.716Z,9.40
2023-04-06T10:34:54.457Z,7.10
2023-04-06T10:40:00.259Z,8.50
2023-04-06T10:45:08.443Z,7.30
2023-04-06T10:50:18.259Z,16.50
2023-04-06T10:55:25.401Z,9.50
2023-04-06T11:00:39.685Z,8.50
2023-04-06T11:05:56.203Z,7.60
2023-04-06T11:11:10.677Z,8.90
2023-04-06T11:16:18.724Z,9.20
2023-04-06T11:21:36.394Z,11.00
2023-04-06T11:26:44.875Z,8.50
2023-04-06T11:32:00.975Z,9.10
2023-04-06T11:37:10.690Z,8.40
2023-04-06T11:42:33.404Z,16.00
2023-04-06T11:47:39.786Z,8.40
2023-04-06T11:52:45.369Z,7.40
2023-04-06T11:57:52.938Z,7.20
2023-04-06T12:03:00.385Z,6.20
2023-04-06T12:08:06.228Z,7.50
2023-04-06T12:13:12.950Z,9.10
2023-04-06T12:18:19.636Z,8.40
2023-04-06T12:23:25.328Z,10.90
2023-04-06T12:28:31.235Z,8.60
2023-04-06T12:33:36.793Z,8.10
2023-04-06T12:38:43.040Z,9.40
2023-04-06T12:43:50.632Z,8.30
2023-04-06T12:48:57.535Z,8.50
2023-04-06T12:54:03.747Z,8.40
2023-04-06T12:59:09.729Z,11.10
2023-04-06T13:04:17.068Z,10.60
2023-04-06T13:09:23.209Z,13.90
2023-04-06T13:14:28.865Z,8.40
2023-04-06T13:19:34.880Z,9.10
2023-04-06T13:24:40.681Z,17.00
2023-04-06T13:29:46.358Z,11.00
2023-04-06T13:34:55.214Z,8.30
2023-04-06T13:40:01.373Z,7.80
2023-04-06T13:45:08.788Z,10.80
2023-04-06T13:50:14.676Z,12.60
2023-04-06T13:55:20.406Z,9.40
2023-04-06T14:00:26.631Z,8.90
2023-04-06T14:05:34.472Z,10.50
2023-04-06T14:10:43.438Z,10.90
2023-04-06T14:15:53.619Z,16.90
2023-04-06T14:21:00.148Z,10.70
2023-04-06T14:26:07.416Z,8.30
2023-04-06T14:31:16.171Z,9.90
2023-04-06T14:36:22.246Z,12.40
2023-04-06T14:41:28.128Z,10.60
2023-04-06T14:46:34.589Z,15.40
2023-04-06T14:51:40.238Z,12.40
2023-04-06T14:56:45.816Z,11.00
2023-04-06T15:01:52.335Z,8.20
2023-04-06T15:06:58.666Z,9.30
2023-04-06T15:12:04.507Z,12.30
2023-04-06T15:17:10.270Z,19.40
2023-04-06T15:22:16.013Z,17.20
2023-04-06T15:27:21.782Z,14.60
2023-04-06T15:32:31.332Z,18.20
2023-04-06T15:37:41.879Z,15.10
2023-04-06T15:42:47.573Z,15.80
2023-04-06T15:47:53.977Z,16.10
2023-04-06T15:52:59.655Z,12.50
2023-04-06T15:58:07.217Z,13.70
2023-04-06T16:03:12.739Z,15.50
2023-04-06T16:08:19.708Z,19.80
2023-04-06T16:13:25.482Z,19.30
2023-04-06T16:18:32.090Z,13.90
2023-04-06T16:23:38.919Z,12.70
2023-04-06T16:28:44.446Z,15.60
2023-04-06T16:33:50.808Z,11.30
2023-04-06T16:38:56.418Z,10.40
2023-04-06T16:44:02.312Z,17.80
2023-04-06T16:49:08.015Z,18.90
2023-04-06T16:54:13.684Z,25.50
2023-04-06T16:59:19.338Z,18.10
2023-04-06T17:04:25.571Z,15.10
2023-04-06T17:14:39.325Z,22.50
2023-04-06T17:19:44.954Z,29.70
2023-04-06T17:24:51.305Z,24.20
2023-04-06T17:29:56.931Z,22.90
2023-04-06T17:35:02.767Z,25.20
2023-04-06T17:40:10.279Z,24.90
2023-04-06T17:45:15.790Z,17.80
2023-04-06T17:50:21.389Z,21.30
2023-04-06T17:55:27.753Z,26.80
2023-04-06T18:00:33.808Z,26.60
2023-04-06T18:05:39.825Z,20.50
2023-04-06T18:10:46.099Z,28.10
2023-04-06T18:15:54.438Z,29.90
2023-04-06T18:21:05.444Z,36.30
2023-04-06T18:26:17.780Z,30.50
2023-04-06T18:31:27.679Z,28.20
2023-04-06T18:36:33.474Z,21.80
2023-04-06T18:41:39.636Z,20.40
2023-04-06T18:46:46.654Z,19.60
2023-04-06T18:51:53.775Z,18.80
2023-04-06T18:56:59.516Z,17.50
2023-04-06T19:02:05.052Z,14.50
2023-04-06T19:07:11.649Z,14.20
2023-04-06T19:12:16.997Z,15.10
2023-04-06T19:17:22.776Z,25.00
2023-04-06T19:22:28.299Z,20.70
2023-04-06T19:27:34.208Z,14.70
2023-04-06T19:32:41.277Z,16.20
2023-04-06T19:37:46.674Z,15.30
2023-04-06T19:42:52.012Z,13.90
2023-04-06T19:47:57.428Z,13.40
2023-04-06T19:53:03.400Z,17.80
2023-04-06T19:58:08.895Z,13.80
2023-04-06T20:03:14.449Z,17.80
2023-04-06T20:08:20.601Z,14.10
2023-04-06T20:13:26.573Z,14.60
2023-04-06T20:18:32.217Z,17.10
2023-04-06T20:23:37.798Z,19.50
2023-04-06T20:28:43.452Z,25.20
2023-04-06T20:33:48.904Z,20.00
2023-04-06T20:38:55.004Z,17.80
2023-04-06T20:44:00.384Z,18.70
2023-04-06T20:49:06.112Z,21.50
2023-04-06T20:54:11.821Z,21.10
2023-04-06T20:59:17.196Z,22.80
2023-04-06T21:04:23.226Z,21.00
2023-04-06T21:09:28.922Z,24.70
2023-04-06T21:14:34.589Z,25.70
2023-04-06T21:19:39.956Z,24.00
2023-04-06T21:24:45.775Z,26.90
2023-04-06T21:29:51.479Z,23.80
2023-04-06T21:34:56.881Z,22.80
2023-04-06T21:40:02.571Z,21.50
2023-04-06T21:45:09.590Z,25.80
2023-04-06T21:50:16.166Z,27.90
2023-04-06T21:55:22.019Z,23.10
2023-04-06T22:00:27.540Z,24.50
2023-04-06T22:05:33.203Z,21.50
2023-04-06T22:10:40.811Z,25.50
2023-04-06T22:15:46.905Z,24.00
2023-04-06T22:20:52.548Z,21.80
2023-04-06T22:25:58.199Z,20.80
2023-04-06T22:31:03.966Z,23.80
2023-04-06T22:36:09.883Z,19.30
2023-04-06T22:41:15.504Z,17.30
2023-04-06T22:46:22.525Z,19.40
2023-04-06T22:51:28.498Z,21.30
2023-04-06T22:56:33.942Z,20.20
2023-04-06T23:01:42.278Z,18.10
2023-04-06T23:06:47.759Z,18.90
2023-04-06T23:11:53.525Z,21.30
2023-04-06T23:16:58.978Z,20.90
2023-04-06T23:22:04.449Z,19.00
2023-04-06T23:27:10.026Z,23.30
2023-04-06T23:32:16.190Z,21.40
2023-04-06T23:37:21.733Z,22.30
2023-04-06T23:42:28.733Z,20.20
2023-04-06T23:47:34.666Z,20.20
2023-04-06T23:52:40.552Z,24.70
2023-04-06T23:57:46.151Z,22.40
